Time;durP1;ratioP1;P1;durP2;ratioP2;P2;SDS_P1;SDS_P2;PMS_P1;PMS_P2;Temp;Humidity;BMP_temperature;BMP_pressure;BME280_temperature;BME280_humidity;BME280_pressure;Samples;Min_cycle;Max_cycle;Signal;HPM_P1;HPM_P2
2023/01/29 00:01:12;;;;;;;12.50;7.87;;;;;;;-0.34;84.54;99801.47;4897148;28;20247;-56
2023/01/29 00:03:39;;;;;;;13.50;7.57;;;;;;;-0.37;84.91;99797.25;4901109;29;20245;-56
2023/01/29 00:06:07;;;;;;;13.10;7.37;;;;;;;-0.34;84.59;99797.16;4898676;28;20282;-57
2023/01/29 00:08:35;;;;;;;11.20;7.53;;;;;;;-0.33;85.00;99796.28;4898306;28;20241;-56
2023/01/29 00:11:02;;;;;;;12.67;8.20;;;;;;;-0.35;85.15;99794.66;4898845;28;20246;-57
2023/01/29 00:13:29;;;;;;;14.27;7.90;;;;;;;-0.32;85.36;99792.81;4895323;29;20242;-56
2023/01/29 00:15:57;;;;;;;11.47;7.23;;;;;;;-0.33;85.31;99780.88;4896516;29;20251;-54
2023/01/29 00:18:24;;;;;;;12.40;7.13;;;;;;;-0.42;85.09;99783.75;4893731;28;20306;-53
2023/01/29 00:20:51;;;;;;;16.10;8.07;;;;;;;-0.36;84.89;99780.97;4896706;28;20234;-54
2023/01/29 00:23:18;;;;;;;13.90;7.57;;;;;;;-0.51;85.03;99774.66;4893613;29;20238;-54
2023/01/29 00:25:46;;;;;;;13.30;7.43;;;;;;;-0.43;85.00;99768.44;4894586;29;20294;-53
2023/01/29 00:28:13;;;;;;;15.03;7.90;;;;;;;-0.42;85.06;99767.53;4892710;28;20231;-54
2023/01/29 00:30:40;;;;;;;11.97;7.27;;;;;;;-0.45;84.97;99763.34;4896560;29;20640;-56
2023/01/29 00:33:07;;;;;;;13.03;7.83;;;;;;;-0.48;85.54;99763.44;4895453;29;20294;-56
2023/01/29 00:35:34;;;;;;;11.57;7.67;;;;;;;-0.40;85.45;99760.63;4895891;29;20612;-56
2023/01/29 00:38:00;;;;;;;11.77;7.43;;;;;;;-0.41;85.77;99764.09;4900753;29;20300;-53
2023/01/29 00:40:27;;;;;;;15.23;7.70;;;;;;;-0.45;85.95;99759.06;4895032;29;20255;-54
2023/01/29 00:45:39;;;;;;;11.37;7.20;;;;;;;-0.42;84.95;99767.53;4893265;29;20239;-53
2023/01/29 00:48:06;;;;;;;14.47;7.40;;;;;;;-0.47;85.26;99762.56;4892724;28;20240;-55
2023/01/29 00:50:33;;;;;;;12.90;7.20;;;;;;;-0.48;85.24;99768.56;4897446;28;20245;-54
2023/01/29 00:52:59;;;;;;;13.57;7.90;;;;;;;-0.48;85.42;99766.84;4895702;29;20246;-53
2023/01/29 00:55:26;;;;;;;14.00;7.40;;;;;;;-0.48;85.41;99766.00;4899208;28;20302;-53
2023/01/29 00:57:52;;;;;;;13.60;7.70;;;;;;;-0.47;85.29;99771.09;4898133;29;20818;-55
2023/01/29 01:00:21;;;;;;;11.77;7.33;;;;;;;-0.43;85.04;99773.56;4894527;28;20256;-54
2023/01/29 01:03:12;;;;;;;11.20;7.20;;;;;;;-0.50;85.16;99780.59;4896461;28;20240;-53
2023/01/29 01:06:06;;;;;;;11.27;6.60;;;;;;;-0.52;85.23;99770.41;4895921;29;20337;-53
2023/01/29 01:11:17;;;;;;;12.23;7.20;;;;;;;-0.52;85.29;99770.41;4894496;29;21351;-54
2023/01/29 01:13:43;;;;;;;13.03;7.03;;;;;;;-0.53;85.47;99768.75;4895165;28;20243;-55
2023/01/29 01:16:13;;;;;;;11.63;6.90;;;;;;;-0.55;85.65;99772.25;4893285;28;20237;-55
2023/01/29 01:18:40;;;;;;;10.10;6.80;;;;;;;-0.55;85.42;99775.66;4898303;28;20245;-56
2023/01/29 01:21:07;;;;;;;12.57;6.43;;;;;;;-0.57;85.54;99777.44;4894439;28;20563;-55
2023/01/29 01:23:34;;;;;;;12.93;7.63;;;;;;;-0.55;85.11;99775.66;4894337;29;20247;-53
2023/01/29 01:26:01;;;;;;;14.30;7.60;;;;;;;-0.52;85.58;99778.13;4900062;28;20241;-53
2023/01/29 01:28:28;;;;;;;11.43;6.37;;;;;;;-0.54;85.21;99777.31;4894774;28;20786;-54
2023/01/29 01:30:55;;;;;;;12.83;7.37;;;;;;;-0.48;85.69;99777.13;4897366;29;20234;-54
2023/01/29 01:33:23;;;;;;;11.73;7.73;;;;;;;-0.51;85.81;99782.34;4896198;29;20270;-54
2023/01/29 01:35:50;;;;;;;12.63;6.97;;;;;;;-0.46;85.51;99774.50;4906813;28;20226;-54
2023/01/29 01:38:16;;;;;;;12.03;6.43;;;;;;;-0.54;85.10;99785.03;4900155;28;20293;-55
2023/01/29 01:40:45;;;;;;;10.53;6.77;;;;;;;-0.49;85.12;99779.72;4906149;29;20699;-56
2023/01/29 01:43:12;;;;;;;13.33;6.83;;;;;;;-0.48;84.86;99777.13;4912078;28;20590;-53
2023/01/29 01:45:39;;;;;;;11.67;6.63;;;;;;;-0.49;84.85;99780.56;4905692;29;20237;-56
2023/01/29 01:48:11;;;;;;;11.40;6.60;;;;;;;-0.51;84.92;99778.94;4895166;29;21094;-56
2023/01/29 01:50:44;;;;;;;11.07;6.80;;;;;;;-0.51;84.91;99778.94;4902437;28;20302;-53
2023/01/29 01:53:40;;;;;;;11.27;6.37;;;;;;;-0.55;84.83;99777.41;4904539;29;20206;-52
2023/01/29 01:56:39;;;;;;;11.50;7.07;;;;;;;-0.57;84.46;99780.00;4898244;29;20244;-54
2023/01/29 01:59:09;;;;;;;10.20;6.40;;;;;;;-0.55;84.77;99780.78;4908168;29;20622;-54
2023/01/29 02:01:37;;;;;;;13.13;6.30;;;;;;;-0.53;84.35;99786.69;4895503;29;20243;-53
2023/01/29 02:09:46;;;;;;;9.30;6.17;;;;;;;-0.54;84.23;99777.31;4898044;29;20599;-53
2023/01/29 02:12:15;;;;;;;11.00;6.10;;;;;;;-0.52;85.14;99780.69;4900610;29;20242;-53
2023/01/29 02:14:44;;;;;;;10.67;6.07;;;;;;;-0.56;84.61;99778.28;4899343;29;20662;-53
2023/01/29 02:17:12;;;;;;;10.03;6.53;;;;;;;-0.58;84.82;99778.31;4899470;28;20733;-55
2023/01/29 02:19:47;;;;;;;13.47;7.20;;;;;;;-0.55;85.56;99772.25;4899463;28;20851;-52
2023/01/29 02:22:28;;;;;;;10.10;6.20;;;;;;;-0.53;85.57;99779.00;4901020;28;20233;-56
2023/01/29 02:25:09;;;;;;;10.67;6.20;;;;;;;-0.52;85.55;99780.69;4895369;29;20238;-53
2023/01/29 02:27:59;;;;;;;10.83;6.13;;;;;;;-0.49;84.04;99782.28;4900619;28;20337;-53
2023/01/29 02:30:31;;;;;;;11.37;7.23;;;;;;;-0.45;83.89;99782.16;4899767;28;20234;-53
2023/01/29 02:33:08;;;;;;;10.03;5.83;;;;;;;-0.39;83.07;99781.09;4893092;29;20238;-56
2023/01/29 02:35:41;;;;;;;9.47;6.10;;;;;;;-0.40;83.11;99774.28;4897652;29;20316;-57
2023/01/29 02:38:16;;;;;;;9.60;5.40;;;;;;;-0.43;83.26;99776.94;4895988;29;20298;-54
2023/01/29 02:40:49;;;;;;;9.10;6.00;;;;;;;-0.43;83.83;99774.38;4895877;28;20902;-54
2023/01/29 02:43:28;;;;;;;9.00;5.63;;;;;;;-0.41;84.16;99769.22;4898363;29;20690;-53
2023/01/29 02:46:02;;;;;;;10.43;6.50;;;;;;;-0.40;84.32;99773.47;4896061;29;20265;-54
2023/01/29 02:48:38;;;;;;;10.90;6.60;;;;;;;-0.39;86.40;99770.00;4902483;28;20255;-55
2023/01/29 02:51:11;;;;;;;12.23;6.83;;;;;;;-0.36;85.85;99775.03;4895176;28;20277;-54
2023/01/29 02:53:42;;;;;;;9.77;6.30;;;;;;;-0.37;85.01;99774.19;4893678;29;20670;-54
2023/01/29 02:56:13;;;;;;;9.73;6.20;;;;;;;-0.39;84.33;99777.69;4899376;28;20216;-53
2023/01/29 02:58:43;;;;;;;8.93;6.13;;;;;;;-0.39;85.79;99770.00;4895034;28;20227;-53
2023/01/29 03:01:15;;;;;;;9.27;5.90;;;;;;;-0.35;84.41;99779.28;4919389;28;20243;-55
2023/01/29 03:03:44;;;;;;;9.73;6.13;;;;;;;-0.39;83.34;99778.53;4896813;28;20226;-53
2023/01/29 03:06:21;;;;;;;9.10;6.13;;;;;;;-0.45;83.34;99774.44;4903639;28;20241;-55
2023/01/29 03:08:55;;;;;;;11.20;5.83;;;;;;;-0.42;84.04;99778.63;4896993;28;20714;-54
2023/01/29 03:11:22;;;;;;;10.23;6.10;;;;;;;-0.38;83.66;99780.19;4897291;29;21043;-56
2023/01/29 03:13:55;;;;;;;10.13;5.77;;;;;;;-0.47;82.56;99781.34;4900607;29;20330;-53
2023/01/29 03:16:27;;;;;;;16.27;6.87;;;;;;;-0.44;83.15;99777.84;4895760;29;20284;-54
2023/01/29 03:19:00;;;;;;;9.20;6.07;;;;;;;-0.50;82.90;99773.78;4896008;29;20249;-55
2023/01/29 03:33:03;;;;;;;9.60;6.00;;;;;;;-0.74;84.64;99754.94;4893769;29;20238;-54
2023/01/29 03:35:36;;;;;;;10.73;6.47;;;;;;;-0.76;86.47;99764.38;4899860;28;20226;-53
2023/01/29 03:38:06;;;;;;;10.57;6.53;;;;;;;-0.78;86.10;99764.44;4912873;28;20241;-53
2023/01/29 03:40:37;;;;;;;10.90;6.40;;;;;;;-0.85;85.87;99772.38;4897916;28;20235;-53
2023/01/29 03:43:11;;;;;;;11.67;6.70;;;;;;;-0.93;86.31;99768.34;4898072;29;20246;-54
2023/01/29 03:45:55;;;;;;;9.20;6.20;;;;;;;-0.98;86.70;99766.78;4899335;28;20321;-53
2023/01/29 03:48:31;;;;;;;8.83;5.97;;;;;;;-0.93;87.29;99772.63;4899971;29;20238;-54
2023/01/29 03:51:12;;;;;;;9.97;6.57;;;;;;;-0.97;86.04;99771.88;4896886;29;20265;-53
2023/01/29 03:53:44;;;;;;;7.90;5.27;;;;;;;-1.00;87.14;99777.09;4898370;29;20638;-53
2023/01/29 03:56:25;;;;;;;9.97;5.40;;;;;;;-1.09;87.08;99773.13;4901941;29;20246;-55
2023/01/29 03:58:57;;;;;;;7.90;5.53;;;;;;;-1.14;87.04;99767.31;4892556;29;20283;-53
2023/01/29 04:01:40;;;;;;;9.10;5.70;;;;;;;-1.28;88.33;99760.03;4894565;28;20228;-56
2023/01/29 04:04:14;;;;;;;9.70;4.83;;;;;;;-1.40;89.83;99765.53;4893233;29;20300;-53
2023/01/29 04:06:44;;;;;;;8.13;5.40;;;;;;;-1.53;90.52;99768.47;4900651;29;20255;-54
2023/01/29 04:09:16;;;;;;;8.10;5.73;;;;;;;-1.68;92.04;99767.19;4901046;29;20700;-53
2023/01/29 04:11:49;;;;;;;8.17;5.40;;;;;;;-1.73;92.88;99763.09;4909504;29;20285;-53
2023/01/29 04:14:17;;;;;;;9.43;5.57;;;;;;;-1.79;92.59;99764.97;4899397;29;20233;-53
2023/01/29 04:16:51;;;;;;;8.43;5.30;;;;;;;-1.80;93.61;99759.88;4894597;29;20317;-53
2023/01/29 04:19:21;;;;;;;8.50;5.43;;;;;;;-1.90;94.40;99768.69;4896898;29;20252;-53
2023/01/29 04:21:53;;;;;;;10.13;5.40;;;;;;;-1.93;94.82;99762.78;4898730;28;20241;-53
2023/01/29 04:24:20;;;;;;;7.70;4.80;;;;;;;-1.98;95.16;99762.06;4898595;29;20749;-55
2023/01/29 04:26:58;;;;;;;8.83;5.40;;;;;;;-2.02;94.74;99763.03;4894045;28;20721;-52
2023/01/29 04:29:40;;;;;;;6.83;4.73;;;;;;;-2.13;94.73;99759.97;4896438;29;20241;-53
2023/01/29 04:32:18;;;;;;;6.93;4.30;;;;;;;-2.18;94.91;99761.81;5114481;23;20234;-58
2023/01/29 04:34:57;;;;;;;7.03;4.30;;;;;;;-2.23;95.95;99760.22;4911847;29;20252;-58
2023/01/29 04:37:35;;;;;;;5.90;3.90;;;;;;;-2.27;95.88;99757.75;4915395;29;20248;-58
2023/01/29 04:40:14;;;;;;;7.30;4.13;;;;;;;-2.31;96.33;99762.13;4891770;29;20249;-58
2023/01/29 04:42:48;;;;;;;8.03;4.03;;;;;;;-2.34;97.04;99758.81;4892849;29;20746;-58
2023/01/29 04:45:21;;;;;;;5.93;3.80;;;;;;;-2.40;96.85;99762.38;4893712;29;20727;-57
2023/01/29 04:47:58;;;;;;;7.00;3.50;;;;;;;-2.48;97.88;99759.19;4889075;29;20276;-58
2023/01/29 04:50:34;;;;;;;5.10;3.63;;;;;;;-2.53;98.26;99756.72;4894307;29;20240;-59
2023/01/29 04:53:07;;;;;;;8.07;4.40;;;;;;;-2.61;98.64;99749.28;4890026;29;20244;-58
2023/01/29 04:55:40;;;;;;;7.57;4.30;;;;;;;-2.62;98.09;99751.84;4888159;29;20235;-58
2023/01/29 04:58:14;;;;;;;6.60;4.13;;;;;;;-2.72;98.66;99752.09;4891755;29;20228;-58
2023/01/29 05:00:43;;;;;;;5.73;3.40;;;;;;;-2.77;98.47;99751.38;4888386;29;20286;-59
2023/01/29 05:03:13;;;;;;;4.53;2.90;;;;;;;-2.85;99.25;99755.84;4892574;29;20300;-59
2023/01/29 05:05:42;;;;;;;6.23;3.30;;;;;;;-2.89;99.43;99749.13;4891040;29;20221;-58
2023/01/29 05:08:12;;;;;;;5.40;3.60;;;;;;;-2.89;100.00;99754.25;4891966;29;20289;-58
2023/01/29 05:10:39;;;;;;;8.00;4.23;;;;;;;-2.84;100.00;99758.34;4890754;29;20229;-58
2023/01/29 05:13:11;;;;;;;13.23;4.73;;;;;;;-2.78;100.00;99756.53;4891532;29;20305;-59
2023/01/29 05:15:40;;;;;;;8.43;4.70;;;;;;;-2.68;100.00;99756.28;4894355;29;20369;-58
2023/01/29 05:18:09;;;;;;;6.73;4.10;;;;;;;-2.61;99.25;99764.59;4903502;29;20752;-58
2023/01/29 05:20:39;;;;;;;7.30;3.83;;;;;;;-2.61;100.00;99763.75;4905367;29;20260;-59
2023/01/29 05:23:09;;;;;;;6.23;3.80;;;;;;;-2.56;100.00;99770.44;4909790;29;20310;-58
2023/01/29 05:25:36;;;;;;;5.83;3.90;;;;;;;-2.54;100.00;99778.91;4906383;29;20751;-58
2023/01/29 05:28:05;;;;;;;6.57;4.10;;;;;;;-2.41;98.90;99786.28;4900482;29;20249;-58
2023/01/29 05:30:33;;;;;;;6.03;3.97;;;;;;;-2.38;99.07;99778.53;4898745;29;20729;-58
2023/01/29 05:33:00;;;;;;;6.73;3.90;;;;;;;-2.30;98.71;99774.03;4905471;29;20803;-58
2023/01/29 05:35:27;;;;;;;6.03;3.87;;;;;;;-2.32;98.71;99765.56;4910318;29;20228;-59
2023/01/29 05:37:55;;;;;;;6.27;4.17;;;;;;;-2.31;98.52;99759.56;4906820;29;20234;-58
2023/01/29 05:40:22;;;;;;;7.97;4.70;;;;;;;-2.31;98.98;99741.69;4910411;29;20730;-59
2023/01/29 05:42:49;;;;;;;10.93;5.83;;;;;;;-2.31;99.93;99740.81;4908157;29;20238;-57
2023/01/29 05:45:16;;;;;;;17.03;9.27;;;;;;;-2.30;99.83;99732.28;4910652;29;20257;-58
2023/01/29 05:47:43;;;;;;;20.03;10.70;;;;;;;-2.33;99.53;99722.13;4906209;29;20231;-57
2023/01/29 05:50:10;;;;;;;15.47;7.93;;;;;;;-2.38;99.69;99729.94;4910170;29;20242;-59
2023/01/29 05:55:20;;;;;;;9.73;5.17;;;;;;;-2.49;98.70;99760.06;5143298;23;20559;-58
2023/01/29 05:57:46;;;;;;;6.97;4.20;;;;;;;-2.49;98.97;99752.38;4931360;28;20845;-56
2023/01/29 06:00:14;;;;;;;6.13;4.00;;;;;;;-2.53;98.38;99732.00;4932941;28;20228;-55
2023/01/29 06:02:41;;;;;;;6.67;4.23;;;;;;;-2.58;97.91;99738.09;4925707;28;20249;-58
2023/01/29 06:05:08;;;;;;;4.37;3.13;;;;;;;-2.60;98.53;99757.75;4930602;29;20587;-58
2023/01/29 06:07:35;;;;;;;6.37;3.90;;;;;;;-2.60;98.27;99757.75;4925409;28;20289;-58
2023/01/29 06:10:02;;;;;;;8.23;5.67;;;;;;;-2.55;98.61;99751.66;4930843;29;20239;-57
2023/01/29 06:12:30;;;;;;;11.57;6.60;;;;;;;-2.52;97.86;99751.59;4933612;28;20234;-57
2023/01/29 06:14:56;;;;;;;9.00;5.03;;;;;;;-2.49;98.39;99760.06;4926016;29;20311;-57
2023/01/29 06:17:23;;;;;;;6.57;4.30;;;;;;;-2.47;98.58;99769.34;4931506;29;20640;-56
2023/01/29 06:19:49;;;;;;;8.37;4.73;;;;;;;-2.42;97.55;99777.75;4926481;28;20240;-56
2023/01/29 06:22:16;;;;;;;9.07;5.90;;;;;;;-2.36;96.79;99776.75;4950466;28;20254;-56
2023/01/29 06:24:42;;;;;;;9.17;5.23;;;;;;;-2.27;96.12;99780.78;4927388;28;20277;-56
2023/01/29 06:27:09;;;;;;;7.77;5.03;;;;;;;-2.25;96.38;99784.13;4930041;29;20247;-56
2023/01/29 06:29:36;;;;;;;7.87;5.10;;;;;;;-2.25;96.29;99787.53;4934468;29;20295;-56
2023/01/29 06:32:03;;;;;;;7.40;5.23;;;;;;;-2.18;96.08;99789.94;4931593;29;20236;-57
2023/01/29 06:34:30;;;;;;;12.60;6.13;;;;;;;-2.16;95.92;99790.75;4928360;28;20234;-58
2023/01/29 06:37:00;;;;;;;8.97;6.93;;;;;;;-2.15;96.02;99788.13;4925401;29;20241;-59
2023/01/29 06:39:30;;;;;;;8.83;5.90;;;;;;;-2.11;95.66;99784.59;4931872;29;20825;-58
2023/01/29 06:41:56;;;;;;;9.10;6.10;;;;;;;-2.10;94.28;99781.16;4928359;28;20233;-56
2023/01/29 06:44:23;;;;;;;12.53;7.80;;;;;;;-2.10;94.35;99781.16;4931953;29;20296;-58
2023/01/29 06:46:51;;;;;;;10.17;6.30;;;;;;;-2.11;93.31;99769.25;4929696;28;20232;-58
2023/01/29 06:49:17;;;;;;;7.87;4.57;;;;;;;-2.11;93.54;99770.97;4930804;28;20237;-57
2023/01/29 06:51:44;;;;;;;6.73;4.70;;;;;;;-2.11;92.59;99765.84;4930168;29;20230;-58
2023/01/29 06:54:11;;;;;;;8.67;5.23;;;;;;;-2.05;93.48;99762.28;4929120;29;20237;-58
2023/01/29 06:56:37;;;;;;;12.30;7.43;;;;;;;-2.03;92.59;99773.31;4924998;28;20235;-55
2023/01/29 06:59:04;;;;;;;8.00;5.23;;;;;;;-2.01;92.58;99785.19;4932671;29;20242;-58
2023/01/29 07:01:31;;;;;;;6.17;3.83;;;;;;;-1.99;92.38;99780.03;4933557;29;20338;-57
2023/01/29 07:03:59;;;;;;;5.83;3.97;;;;;;;-2.00;92.49;99780.91;4930068;28;20929;-57
2023/01/29 07:06:28;;;;;;;9.77;5.63;;;;;;;-1.96;92.97;99772.28;4933210;28;20681;-56
2023/01/29 07:08:54;;;;;;;6.53;4.90;;;;;;;-1.91;93.66;99772.13;4930225;28;20713;-58
2023/01/29 07:11:21;;;;;;;5.97;4.03;;;;;;;-1.93;92.90;99759.41;4933108;29;20232;-59
2023/01/29 07:13:48;;;;;;;6.67;3.60;;;;;;;-1.89;92.14;99762.69;4929587;28;20232;-58
2023/01/29 07:16:14;;;;;;;5.10;4.10;;;;;;;-1.89;91.79;99749.91;4929727;29;20464;-58
2023/01/29 07:18:41;;;;;;;5.10;3.63;;;;;;;-1.93;92.32;99760.22;4924891;28;20237;-58
2023/01/29 07:21:09;;;;;;;5.77;3.43;;;;;;;-1.93;93.03;99760.22;4931944;28;20248;-58
2023/01/29 07:23:35;;;;;;;3.60;2.67;;;;;;;-1.85;93.00;99772.81;4925215;28;20765;-57
2023/01/29 07:26:03;;;;;;;5.13;3.27;;;;;;;-1.91;92.97;99769.56;4917885;29;20242;-57
2023/01/29 07:28:29;;;;;;;5.23;3.47;;;;;;;-1.90;92.54;99789.16;4930940;28;20241;-58
2023/01/29 07:30:57;;;;;;;5.90;3.20;;;;;;;-1.90;93.56;99791.72;4930379;29;20237;-58
2023/01/29 07:33:25;;;;;;;4.77;3.30;;;;;;;-1.82;93.24;99793.19;4932031;29;20672;-59
2023/01/29 07:35:52;;;;;;;4.03;3.10;;;;;;;-1.71;93.55;99794.63;4930063;28;20241;-57
2023/01/29 07:38:20;;;;;;;5.80;3.57;;;;;;;-1.59;93.70;99803.66;4926347;28;20617;-57
2023/01/29 07:40:46;;;;;;;5.77;3.50;;;;;;;-1.47;93.52;99803.31;4931260;28;20229;-58
2023/01/29 07:43:13;;;;;;;6.73;3.90;;;;;;;-1.34;92.72;99802.06;4934956;29;20287;-57
2023/01/29 07:45:40;;;;;;;11.73;7.30;;;;;;;-1.21;92.65;99812.75;4929319;28;20224;-58
2023/01/29 07:48:10;;;;;;;6.97;4.90;;;;;;;-1.08;91.27;99809.81;4928179;29;20231;-57
2023/01/29 07:50:36;;;;;;;8.47;5.17;;;;;;;-0.97;89.77;99812.91;4932798;28;20224;-58
2023/01/29 07:53:03;;;;;;;10.43;5.40;;;;;;;-0.86;87.36;99815.09;4934339;28;20293;-56
2023/01/29 07:55:32;;;;;;;8.07;5.00;;;;;;;-0.69;87.37;99819.72;4933704;28;20232;-57
2023/01/29 07:58:00;;;;;;;14.40;6.23;;;;;;;-0.60;87.26;99819.41;4931479;29;20290;-57
2023/01/29 08:00:27;;;;;;;11.20;6.67;;;;;;;-0.54;85.97;99818.38;4931207;28;20259;-58
2023/01/29 08:02:54;;;;;;;11.68;7.72;;;;;;;-0.55;86.12;99821.81;4923797;28;20432;-59
2023/01/29 08:05:20;;;;;;;12.50;7.27;;;;;;;-0.58;86.01;99819.34;4929682;28;20289;-58
2023/01/29 08:07:53;;;;;;;12.53;6.90;;;;;;;-0.55;86.22;99821.00;4925913;28;20300;-59
2023/01/29 08:10:20;;;;;;;11.23;7.70;;;;;;;-0.45;86.31;99836.00;4925491;28;20238;-59
2023/01/29 08:12:48;;;;;;;11.60;7.33;;;;;;;-0.42;86.03;99847.06;4898460;29;20302;-59
2023/01/29 08:15:14;;;;;;;10.77;7.00;;;;;;;-0.42;83.78;99853.03;4926205;29;20514;-58
2023/01/29 08:17:42;;;;;;;44.27;26.83;;;;;;;-0.45;84.67;99859.09;4933499;28;20243;-59
2023/01/29 08:20:10;;;;;;;20.57;10.53;;;;;;;-0.46;84.14;99860.00;4931970;29;20247;-59
2023/01/29 08:22:37;;;;;;;17.30;10.37;;;;;;;-0.36;84.92;99862.25;4925109;29;20249;-59
2023/01/29 08:25:04;;;;;;;15.67;9.30;;;;;;;-0.21;84.78;99866.88;4932704;29;20298;-59
2023/01/29 08:27:31;;;;;;;19.80;9.67;;;;;;;-0.24;83.61;99864.41;4929908;29;20729;-59
2023/01/29 08:29:58;;;;;;;23.10;11.87;;;;;;;-0.14;83.80;99861.53;4927259;29;20243;-59
2023/01/29 08:32:25;;;;;;;20.10;11.70;;;;;;;-0.15;84.49;99863.25;4931341;29;20242;-59
2023/01/29 08:34:52;;;;;;;18.37;10.57;;;;;;;-0.10;84.06;99857.97;4924581;29;20229;-59
2023/01/29 08:37:18;;;;;;;20.03;10.53;;;;;;;-0.09;83.51;99863.06;4925913;28;20246;-59
2023/01/29 08:39:45;;;;;;;17.87;9.80;;;;;;;-0.08;83.08;99866.47;4921664;28;20233;-56
2023/01/29 08:42:12;;;;;;;14.33;8.67;;;;;;;-0.17;81.12;99865.03;4926027;28;20235;-58
2023/01/29 08:44:38;;;;;;;15.80;9.17;;;;;;;-0.26;82.14;99855.06;4926517;28;20245;-60
2023/01/29 08:47:06;;;;;;;17.07;9.30;;;;;;;-0.33;82.27;99867.28;4931231;28;20237;-60
2023/01/29 08:49:35;;;;;;;16.53;9.43;;;;;;;-0.19;82.15;99865.09;4930286;28;20230;-60
2023/01/29 08:52:02;;;;;;;18.70;9.93;;;;;;;-0.22;81.49;99864.34;4924503;28;20238;-59
2023/01/29 08:54:28;;;;;;;18.67;10.63;;;;;;;-0.19;81.89;99861.69;4926181;29;20238;-59
2023/01/29 08:56:56;;;;;;;17.50;10.07;;;;;;;-0.24;82.05;99861.84;4927976;28;20249;-60
2023/01/29 08:59:22;;;;;;;17.07;9.70;;;;;;;-0.19;82.63;99862.53;4927657;28;20577;-59
2023/01/29 09:01:49;;;;;;;14.67;9.13;;;;;;;-0.14;82.07;99858.97;4921443;29;20327;-59
2023/01/29 09:04:17;;;;;;;17.90;8.97;;;;;;;-0.11;81.18;99862.25;4926401;29;20249;-60
2023/01/29 09:06:43;;;;;;;14.40;9.20;;;;;;;-0.05;80.74;99863.81;4924648;28;20304;-58
2023/01/29 09:09:10;;;;;;;15.67;9.30;;;;;;;-0.07;80.97;99861.28;4924442;29;20239;-58
2023/01/29 09:11:39;;;;;;;21.23;10.50;;;;;;;-0.02;80.21;99856.00;4921638;29;20242;-59
2023/01/29 09:14:06;;;;;;;17.23;9.73;;;;;;;-0.07;80.52;99850.19;4934372;29;20586;-59
2023/01/29 09:16:32;;;;;;;15.97;8.60;;;;;;;0.09;80.60;99848.72;4928921;29;20622;-59
2023/01/29 09:18:59;;;;;;;16.63;9.00;;;;;;;0.18;78.73;99854.44;4923189;28;20238;-60
2023/01/29 09:21:27;;;;;;;16.93;10.27;;;;;;;0.16;78.78;99857.06;4928700;29;20751;-59
2023/01/29 09:23:53;;;;;;;14.83;9.43;;;;;;;0.31;78.94;99853.09;4925455;28;20249;-58
2023/01/29 09:26:20;;;;;;;16.60;8.87;;;;;;;0.23;78.68;99865.38;4930215;28;20304;-59
2023/01/29 09:28:46;;;;;;;16.67;10.17;;;;;;;0.33;78.21;99868.47;4923859;28;20239;-59
2023/01/29 09:31:13;;;;;;;18.40;9.40;;;;;;;0.41;78.08;99872.44;4931717;28;20230;-59
2023/01/29 09:33:40;;;;;;;18.07;10.07;;;;;;;0.51;77.77;99884.94;4929137;28;20239;-59
2023/01/29 09:36:07;;;;;;;17.13;10.87;;;;;;;0.46;78.24;99889.41;4928403;29;20642;-59
2023/01/29 09:38:35;;;;;;;18.17;10.17;;;;;;;0.65;78.57;99887.84;4922283;29;20233;-59
2023/01/29 09:41:08;;;;;;;17.33;9.67;;;;;;;0.77;77.72;99891.69;4927938;29;20242;-58
2023/01/29 09:43:42;;;;;;;16.33;9.03;;;;;;;0.85;75.87;99883.72;4925476;29;20230;-58
2023/01/29 09:46:18;;;;;;;14.70;8.97;;;;;;;0.99;76.40;99878.88;4923665;28;20555;-59
2023/01/29 09:48:46;;;;;;;17.30;10.57;;;;;;;0.88;77.40;99860.47;4926149;28;20232;-58
2023/01/29 09:51:26;;;;;;;19.13;10.33;;;;;;;1.09;77.65;99851.06;4924346;28;20705;-58
2023/01/29 09:54:03;;;;;;;14.23;9.10;;;;;;;1.25;75.93;99842.75;4929697;28;20235;-59
2023/01/29 09:56:30;;;;;;;19.20;9.93;;;;;;;1.38;74.82;99828.50;4933309;29;20234;-59
2023/01/29 09:58:58;;;;;;;16.37;10.30;;;;;;;1.51;74.26;99813.38;4924348;28;20282;-59
2023/01/29 10:01:33;;;;;;;14.53;9.13;;;;;;;1.67;75.17;99810.16;4928874;28;20244;-60
2023/01/29 10:04:16;;;;;;;13.70;8.10;;;;;;;1.85;73.27;99813.69;4929274;29;20246;-59
2023/01/29 10:06:59;;;;;;;15.63;9.33;;;;;;;1.93;71.89;99814.19;4924111;28;20816;-59
2023/01/29 10:10:00;;;;;;;14.93;9.73;;;;;;;2.02;70.96;99800.09;4930067;29;20236;-59
2023/01/29 10:12:41;;;;;;;29.87;15.10;;;;;;;1.98;69.76;99814.03;4931946;29;20265;-59
2023/01/29 10:15:23;;;;;;;14.53;8.60;;;;;;;1.70;69.46;99807.47;4930656;28;20239;-59
2023/01/29 10:17:59;;;;;;;10.63;6.87;;;;;;;1.59;68.81;99813.09;4927726;29;20294;-60
2023/01/29 10:20:42;;;;;;;10.87;7.17;;;;;;;1.50;69.12;99809.13;4933070;28;20235;-59
2023/01/29 10:23:23;;;;;;;10.97;7.07;;;;;;;1.35;69.66;99808.03;4933436;29;20230;-59
2023/01/29 10:25:53;;;;;;;12.47;8.20;;;;;;;1.39;69.51;99819.03;4931055;28;20242;-59
2023/01/29 10:28:23;;;;;;;14.37;8.13;;;;;;;1.44;70.62;99829.97;4931044;29;20289;-59
2023/01/29 10:30:51;;;;;;;13.20;8.33;;;;;;;1.36;71.95;99832.03;4933520;28;20673;-59
2023/01/29 10:33:25;;;;;;;14.80;8.57;;;;;;;1.56;71.99;99826.06;4936825;29;20239;-60
2023/01/29 10:35:56;;;;;;;14.80;8.90;;;;;;;1.60;71.37;99825.03;4927982;28;20219;-60
2023/01/29 10:38:30;;;;;;;13.97;9.33;;;;;;;1.87;69.81;99823.03;4935190;29;20702;-58
2023/01/29 10:41:10;;;;;;;12.60;8.50;;;;;;;1.77;68.82;99832.88;4928436;28;20238;-60
2023/01/29 10:43:47;;;;;;;13.57;7.63;;;;;;;1.87;69.51;99835.91;4931957;28;20297;-60
2023/01/29 10:46:25;;;;;;;15.63;8.50;;;;;;;1.90;68.87;99840.09;4930363;28;20292;-58
2023/01/29 10:49:02;;;;;;;13.60;7.90;;;;;;;1.90;67.64;99835.78;4927445;28;20241;-58
2023/01/29 10:51:54;;;;;;;12.73;7.40;;;;;;;2.00;68.54;99832.81;4927808;28;20223;-58
2023/01/29 10:54:35;;;;;;;10.00;6.97;;;;;;;1.95;66.20;99829.59;4927661;29;20290;-59
2023/01/29 10:57:13;;;;;;;13.83;7.93;;;;;;;2.12;67.15;99828.84;4928753;28;20239;-59
2023/01/29 10:59:53;;;;;;;12.40;8.80;;;;;;;2.17;68.26;99827.75;4931752;29;20792;-59
2023/01/29 11:02:21;;;;;;;13.17;8.60;;;;;;;2.31;66.72;99828.88;4935950;28;20600;-58
2023/01/29 11:04:48;;;;;;;13.27;8.30;;;;;;;2.05;66.04;99833.47;4931022;28;20238;-60
2023/01/29 11:07:17;;;;;;;11.43;7.83;;;;;;;2.05;65.53;99836.03;4932084;28;20243;-58
2023/01/29 11:09:50;;;;;;;14.20;7.37;;;;;;;1.86;66.52;99831.66;4925189;28;20245;-59
2023/01/29 11:12:23;;;;;;;10.73;7.27;;;;;;;1.83;65.96;99838.66;4920790;29;20681;-59
2023/01/29 11:14:53;;;;;;;13.40;7.67;;;;;;;1.92;66.88;99830.56;4929244;28;20239;-58
2023/01/29 11:17:23;;;;;;;14.43;7.53;;;;;;;1.91;66.41;99829.72;4936091;28;20721;-59
2023/01/29 11:19:51;;;;;;;46.37;25.30;;;;;;;1.77;66.88;99832.06;4929578;29;20239;-58
2023/01/29 11:22:20;;;;;;;12.57;8.03;;;;;;;1.72;66.95;99821.13;4928237;29;20286;-59
2023/01/29 11:24:47;;;;;;;12.40;7.63;;;;;;;1.96;67.89;99813.25;4925375;28;20588;-59
2023/01/29 11:27:16;;;;;;;12.33;7.70;;;;;;;1.84;66.73;99805.16;4926689;29;20730;-59
2023/01/29 11:29:45;;;;;;;12.27;8.23;;;;;;;1.96;66.53;99798.63;4927220;28;20229;-59
2023/01/29 11:32:14;;;;;;;11.20;7.53;;;;;;;2.16;64.86;99796.91;4931132;29;20803;-59
2023/01/29 11:34:58;;;;;;;14.83;7.40;;;;;;;1.92;64.67;99804.81;4929698;28;20238;-59
2023/01/29 11:37:33;;;;;;;9.87;7.07;;;;;;;1.57;66.84;99794.28;4937660;28;20293;-59
2023/01/29 11:39:59;;;;;;;11.63;7.83;;;;;;;1.39;67.38;99795.88;4929908;29;20674;-59
2023/01/29 11:42:30;;;;;;;11.90;7.23;;;;;;;1.56;67.29;99797.78;4934721;28;20705;-59
2023/01/29 11:44:58;;;;;;;11.90;8.40;;;;;;;1.57;66.95;99800.25;4928780;28;20283;-60
2023/01/29 11:47:27;;;;;;;13.10;7.00;;;;;;;1.75;66.85;99803.78;4923360;28;20232;-59
2023/01/29 11:49:56;;;;;;;18.17;7.13;;;;;;;1.75;66.44;99787.53;4928572;28;20252;-59
2023/01/29 11:52:24;;;;;;;11.33;6.83;;;;;;;1.83;66.34;99775.16;4944227;28;20566;-58
2023/01/29 11:54:54;;;;;;;13.47;7.13;;;;;;;1.81;66.70;99776.09;4927800;29;20230;-59
2023/01/29 11:57:27;;;;;;;11.37;7.00;;;;;;;1.99;65.99;99777.06;4926452;28;20230;-59
2023/01/29 11:59:55;;;;;;;11.63;6.97;;;;;;;1.92;65.65;99777.31;4927532;29;20725;-58
2023/01/29 12:02:35;;;;;;;11.87;7.03;;;;;;;1.74;66.21;99768.66;4933297;28;20253;-60
2023/01/29 12:05:06;;;;;;;11.30;6.80;;;;;;;1.79;66.32;99767.63;4930478;29;20249;-60
2023/01/29 12:07:34;;;;;;;11.17;7.70;;;;;;;1.71;66.86;99757.66;4943338;23;20230;-52
2023/01/29 12:10:01;;;;;;;13.43;7.33;;;;;;;1.46;67.82;99762.13;4929055;28;20704;-54